createdAt,value
2023-03-24T00:03:10.896Z,3.70
2023-03-24T00:08:17.136Z,2.83
2023-03-24T00:13:20.346Z,3.33
2023-03-24T00:18:25.936Z,3.87
2023-03-24T00:23:32.631Z,3.70
2023-03-24T00:28:37.644Z,2.67
2023-03-24T00:33:41.354Z,3.70
2023-03-24T00:38:47.307Z,2.47
2023-03-24T00:43:53.975Z,6.00
2023-03-24T00:49:02.733Z,4.17
2023-03-24T00:54:09.427Z,3.50
2023-03-24T00:59:14.061Z,3.30
2023-03-24T01:04:17.292Z,2.40
2023-03-24T01:09:22.063Z,3.47
2023-03-24T01:14:25.332Z,3.37
2023-03-24T01:19:29.284Z,2.03
2023-03-24T01:24:33.858Z,5.33
2023-03-24T01:29:37.359Z,2.37
2023-03-24T01:34:40.603Z,3.23
2023-03-24T01:39:45.130Z,4.00
2023-03-24T01:44:54.292Z,3.50
2023-03-24T01:50:03.119Z,2.77
2023-03-24T01:55:12.819Z,3.20
2023-03-24T02:00:19.556Z,3.07
2023-03-24T02:05:46.322Z,2.20
2023-03-24T02:10:56.284Z,4.40
2023-03-24T02:16:15.099Z,4.27
2023-03-24T02:21:56.650Z,1.87
2023-03-24T02:27:15.818Z,0.80
2023-03-24T02:33:09.781Z,1.80
2023-03-24T02:38:29.063Z,1.57
2023-03-24T02:43:45.896Z,3.40
2023-03-24T02:49:02.964Z,3.20
2023-03-24T02:54:12.140Z,3.67
2023-03-24T02:59:23.316Z,5.13
2023-03-24T03:04:34.477Z,5.90
2023-03-24T03:09:41.218Z,5.03
2023-03-24T03:14:51.847Z,4.23
2023-03-24T03:19:58.154Z,8.43
2023-03-24T03:25:03.913Z,7.17
2023-03-24T03:30:14.678Z,4.97
2023-03-24T03:35:23.926Z,5.33
2023-03-24T03:40:32.483Z,11.37
2023-03-24T03:45:45.071Z,7.00
2023-03-24T03:50:57.421Z,15.40
2023-03-24T03:56:10.554Z,9.03
2023-03-24T04:01:26.620Z,9.60
2023-03-24T04:07:08.314Z,9.03
2023-03-24T04:12:35.846Z,15.00
2023-03-24T04:18:20.906Z,13.33
2023-03-24T04:23:42.104Z,11.07
2023-03-24T04:28:58.663Z,7.80
2023-03-24T04:34:09.945Z,13.00
2023-03-24T04:39:17.843Z,14.63
2023-03-24T04:44:27.908Z,16.73
2023-03-24T04:49:53.227Z,14.43
2023-03-24T04:54:57.466Z,15.83
2023-03-24T05:00:02.918Z,14.37
2023-03-24T05:05:09.971Z,12.23
2023-03-24T05:10:21.822Z,9.47
2023-03-24T05:15:30.814Z,10.33
2023-03-24T05:20:55.142Z,13.27
2023-03-24T05:25:58.674Z,14.00
2023-03-24T05:31:05.101Z,10.63
2023-03-24T05:36:22.510Z,10.00
2023-03-24T05:41:34.644Z,12.73
2023-03-24T05:46:38.207Z,11.00
2023-03-24T05:51:43.100Z,15.07
2023-03-24T05:56:46.789Z,11.70
2023-03-24T06:02:09.491Z,8.87
2023-03-24T06:07:26.607Z,12.33
2023-03-24T06:12:31.624Z,15.23
2023-03-24T06:17:38.502Z,7.93
2023-03-24T06:22:54.493Z,11.20
2023-03-24T06:28:06.124Z,10.03
2023-03-24T06:33:11.422Z,6.67
2023-03-24T06:38:16.764Z,8.73
2023-03-24T06:43:21.323Z,14.00
2023-03-24T06:48:26.445Z,8.93
2023-03-24T06:53:38.866Z,15.53
2023-03-24T06:58:42.101Z,7.67
2023-03-24T07:03:52.009Z,11.20
2023-03-24T07:09:15.175Z,11.47
2023-03-24T07:14:18.381Z,7.13
2023-03-24T07:19:23.213Z,9.73
2023-03-24T07:24:39.521Z,11.83
2023-03-24T07:30:03.433Z,11.43
2023-03-24T07:35:17.022Z,9.83
2023-03-24T07:40:22.272Z,9.23
2023-03-24T07:45:26.103Z,13.03
2023-03-24T07:50:30.066Z,9.40
2023-03-24T07:55:38.060Z,8.40
2023-03-24T08:00:55.581Z,11.53
2023-03-24T08:06:12.124Z,7.03
2023-03-24T08:11:20.983Z,8.80
2023-03-24T08:16:24.921Z,8.57
2023-03-24T08:21:28.104Z,8.87
2023-03-24T08:26:37.988Z,10.40
2023-03-24T08:31:41.206Z,7.33
2023-03-24T08:36:44.210Z,8.83
2023-03-24T08:41:50.319Z,8.87
2023-03-24T08:47:02.086Z,7.63
2023-03-24T08:52:05.726Z,8.17
2023-03-24T08:57:10.208Z,8.97
2023-03-24T09:02:16.478Z,9.00
2023-03-24T09:07:19.531Z,10.90
2023-03-24T09:12:24.066Z,10.40
2023-03-24T09:17:27.629Z,13.00
2023-03-24T09:22:30.856Z,7.93
2023-03-24T09:27:35.357Z,8.87
2023-03-24T09:32:38.460Z,8.10
2023-03-24T09:37:43.364Z,10.03
2023-03-24T09:42:56.620Z,9.17
2023-03-24T09:48:04.687Z,10.90
2023-03-24T09:53:16.858Z,6.53
2023-03-24T09:58:21.813Z,6.70
2023-03-24T10:03:25.365Z,7.20
2023-03-24T10:08:33.696Z,7.70
2023-03-24T10:13:55.381Z,6.10
2023-03-24T10:19:04.542Z,9.23
2023-03-24T10:24:15.618Z,7.47
2023-03-24T10:29:26.033Z,7.23
2023-03-24T10:34:35.167Z,7.03
2023-03-24T10:39:44.898Z,8.13
2023-03-24T10:44:54.579Z,7.53
2023-03-24T10:50:14.307Z,6.13
2023-03-24T10:55:23.626Z,6.43
2023-03-24T11:00:31.734Z,8.03
2023-03-24T11:05:37.983Z,6.37
2023-03-24T11:10:41.570Z,6.77
2023-03-24T11:15:55.412Z,5.60
2023-03-24T11:21:04.254Z,5.53
2023-03-24T11:26:11.170Z,5.33
2023-03-24T11:36:47.313Z,2.57
2023-03-24T11:42:02.504Z,7.03
2023-03-24T11:47:13.575Z,5.03
2023-03-24T11:52:23.757Z,5.70
2023-03-24T11:57:48.971Z,6.23
2023-03-24T12:03:25.020Z,5.77
2023-03-24T12:08:40.042Z,5.27
2023-03-24T12:13:45.518Z,4.90
2023-03-24T12:19:23.074Z,5.23
2023-03-24T12:24:41.677Z,7.57
2023-03-24T12:30:00.817Z,6.37
2023-03-24T12:35:45.856Z,5.70
2023-03-24T12:41:05.395Z,5.60
2023-03-24T12:46:29.561Z,5.47
2023-03-24T12:51:48.281Z,6.20
2023-03-24T12:56:59.277Z,7.63
2023-03-24T13:02:10.962Z,7.67
2023-03-24T13:07:20.072Z,9.07
2023-03-24T13:12:25.977Z,9.30
2023-03-24T13:17:34.362Z,3.77
2023-03-24T13:22:39.515Z,2.27
2023-03-24T13:27:51.016Z,4.20
2023-03-24T13:32:56.670Z,3.63
2023-03-24T13:38:07.649Z,3.93
2023-03-24T13:43:15.489Z,4.20
2023-03-24T13:48:34.932Z,2.37
2023-03-24T13:53:45.010Z,2.67
2023-03-24T13:59:04.661Z,2.37
2023-03-24T14:04:45.498Z,2.67
2023-03-24T14:10:01.136Z,5.43
2023-03-24T14:15:15.762Z,4.37
2023-03-24T14:20:29.465Z,2.80
2023-03-24T14:25:45.710Z,4.10
2023-03-24T14:31:13.491Z,4.63
2023-03-24T14:36:23.283Z,2.67
2023-03-24T14:41:32.016Z,4.43
2023-03-24T14:46:38.615Z,2.73
2023-03-24T14:51:44.816Z,6.87
2023-03-24T14:56:54.102Z,7.57
2023-03-24T15:02:05.428Z,7.67
2023-03-24T15:07:14.950Z,3.60
2023-03-24T15:12:21.172Z,2.83
2023-03-24T15:23:10.095Z,4.80
2023-03-24T15:28:21.635Z,5.37
2023-03-24T15:33:26.171Z,9.07
2023-03-24T15:38:30.892Z,8.47
2023-03-24T15:43:43.360Z,5.63
2023-03-24T15:48:48.711Z,6.17
2023-03-24T15:53:59.228Z,7.13
2023-03-24T15:59:16.308Z,6.87
2023-03-24T16:04:23.420Z,7.60
2023-03-24T16:09:28.129Z,6.00
2023-03-24T16:14:33.320Z,5.50
2023-03-24T16:19:37.893Z,5.80
2023-03-24T16:24:41.066Z,6.77
2023-03-24T16:29:45.478Z,5.80
2023-03-24T16:34:51.326Z,11.60
2023-03-24T16:39:54.828Z,6.80
2023-03-24T16:44:59.484Z,6.10
2023-03-24T16:50:02.642Z,6.63
2023-03-24T16:55:06.725Z,6.27
2023-03-24T17:00:13.063Z,7.80
2023-03-24T17:05:24.391Z,4.50
2023-03-24T17:10:28.680Z,5.37
2023-03-24T17:15:36.565Z,4.40
2023-03-24T17:20:40.757Z,6.60
2023-03-24T17:25:43.788Z,6.47
2023-03-24T17:30:50.530Z,5.13
2023-03-24T17:35:55.080Z,4.03
2023-03-24T17:41:02.401Z,6.03
2023-03-24T17:46:07.067Z,4.50
2023-03-24T17:51:10.169Z,5.00
2023-03-24T17:56:13.620Z,5.57
2023-03-24T18:01:21.341Z,8.60
2023-03-24T18:06:24.532Z,5.47
2023-03-24T18:11:28.032Z,2.77
2023-03-24T18:16:35.558Z,4.20
2023-03-24T18:21:39.934Z,4.93
2023-03-24T18:26:43.305Z,4.57
2023-03-24T18:31:47.847Z,4.10
2023-03-24T18:36:53.665Z,4.17
2023-03-24T18:41:59.626Z,5.63
2023-03-24T18:47:04.446Z,4.17
2023-03-24T18:52:09.614Z,3.70
2023-03-24T18:57:13.312Z,13.33
2023-03-24T19:02:18.277Z,7.23
2023-03-24T19:07:24.722Z,6.20
2023-03-24T19:12:28.142Z,3.17
2023-03-24T19:17:33.321Z,3.63
2023-03-24T19:22:36.700Z,4.90
2023-03-24T19:27:39.823Z,6.07
2023-03-24T19:32:44.425Z,5.30
2023-03-24T19:37:53.782Z,3.80
2023-03-24T19:42:56.904Z,2.70
2023-03-24T19:48:03.455Z,4.37
2023-03-24T19:53:06.527Z,6.93
2023-03-24T19:58:09.964Z,3.33
2023-03-24T20:03:14.648Z,6.17
2023-03-24T20:08:19.315Z,5.33
2023-03-24T20:13:24.160Z,4.60
2023-03-24T20:18:28.699Z,4.10
2023-03-24T20:23:32.228Z,5.10
2023-03-24T20:28:35.486Z,6.30
2023-03-24T20:33:40.412Z,3.43
2023-03-24T20:38:43.915Z,5.53
2023-03-24T20:43:47.149Z,6.30
2023-03-24T20:48:53.752Z,6.53
2023-03-24T20:53:57.020Z,5.77
2023-03-24T20:59:01.122Z,7.63
2023-03-24T21:04:09.406Z,4.97
2023-03-24T21:09:13.555Z,4.37
2023-03-24T21:14:16.638Z,3.63
2023-03-24T21:19:22.932Z,4.23
2023-03-24T21:24:28.658Z,3.80
2023-03-24T21:29:31.925Z,5.50
2023-03-24T21:34:36.790Z,6.37
2023-03-24T21:39:39.932Z,5.57
2023-03-24T21:44:43.002Z,6.03
2023-03-24T21:49:52.560Z,3.57
2023-03-24T21:54:58.152Z,4.93
2023-03-24T22:00:02.028Z,3.67
2023-03-24T22:05:17.230Z,5.40
2023-03-24T22:10:23.046Z,8.17
2023-03-24T22:15:26.240Z,2.53
2023-03-24T22:20:32.001Z,5.57
2023-03-24T22:25:35.541Z,4.20
2023-03-24T22:30:41.986Z,2.80
2023-03-24T22:35:47.856Z,7.73
2023-03-24T22:40:52.023Z,7.93
2023-03-24T22:45:55.560Z,6.57
2023-03-24T22:51:00.069Z,10.37
2023-03-24T22:56:03.674Z,10.57
2023-03-24T23:01:07.921Z,9.13
2023-03-24T23:06:13.356Z,7.43
2023-03-24T23:11:16.817Z,4.47
2023-03-24T23:16:21.438Z,7.37
2023-03-24T23:21:26.222Z,4.13
2023-03-24T23:26:30.336Z,6.27
2023-03-24T23:31:33.531Z,8.40
2023-03-24T23:36:39.832Z,10.60
2023-03-24T23:41:43.151Z,4.53
2023-03-24T23:46:46.311Z,5.50
2023-03-24T23:51:51.502Z,8.77
2023-03-24T23:56:54.979Z,11.83
